sensor_id;sensor_type;location;lat;lon;timestamp;pressure;altitude;pressure_sealevel;temperature;humidity
70468;BME280;57934;51.532;7.684;2023-01-25T00:00:29;102450.75;;;-0.05;87.58
70468;BME280;57934;51.532;7.684;2023-01-25T00:02:55;102448.25;;;-0.07;88.09
70468;BME280;57934;51.532;7.684;2023-01-25T00:05:21;102448.16;;;-0.05;87.88
70468;BME280;57934;51.532;7.684;2023-01-25T00:07:47;102444.75;;;-0.06;88.14
70468;BME280;57934;51.532;7.684;2023-01-25T00:10:14;102448.09;;;-0.04;88.15
70468;BME280;57934;51.532;7.684;2023-01-25T00:12:40;102448.09;;;-0.04;87.87
70468;BME280;57934;51.532;7.684;2023-01-25T00:15:06;102445.72;;;-0.08;87.74
70468;BME280;57934;51.532;7.684;2023-01-25T00:17:32;102447.81;;;-0.16;87.95
70468;BME280;57934;51.532;7.684;2023-01-25T00:19:59;102434.78;;;-0.15;87.99
70468;BME280;57934;51.532;7.684;2023-01-25T00:22:25;102432.28;;;-0.16;87.76
70468;BME280;57934;51.532;7.684;2023-01-25T00:24:51;102422.47;;;-0.10;87.60
70468;BME280;57934;51.532;7.684;2023-01-25T00:27:17;102418.69;;;-0.03;87.39
70468;BME280;57934;51.532;7.684;2023-01-25T00:29:43;102419.56;;;-0.04;87.75
70468;BME280;57934;51.532;7.684;2023-01-25T00:39:48;102420.69;;;-0.28;89.24
70468;BME280;57934;51.532;7.684;2023-01-25T00:42:15;102413.28;;;-0.36;89.26
70468;BME280;57934;51.532;7.684;2023-01-25T00:44:44;102411.88;;;-0.43;89.57
70468;BME280;57934;51.532;7.684;2023-01-25T00:47:11;102408.88;;;-0.34;89.55
70468;BME280;57934;51.532;7.684;2023-01-25T00:49:38;102405.13;;;-0.28;89.49
70468;BME280;57934;51.532;7.684;2023-01-25T00:52:05;102401.31;;;-0.38;89.28
70468;BME280;57934;51.532;7.684;2023-01-25T00:54:32;102396.97;;;-0.38;89.53
70468;BME280;57934;51.532;7.684;2023-01-25T00:56:58;102391.78;;;-0.38;89.38
70468;BME280;57934;51.532;7.684;2023-01-25T00:59:25;102384.56;;;-0.31;89.72
70468;BME280;57934;51.532;7.684;2023-01-25T01:01:53;102391.47;;;-0.32;90.07
70468;BME280;57934;51.532;7.684;2023-01-25T01:04:20;102389.59;;;-0.28;90.21
70468;BME280;57934;51.532;7.684;2023-01-25T01:06:51;102390.22;;;-0.23;89.47
70468;BME280;57934;51.532;7.684;2023-01-25T01:09:20;102385.19;;;-0.26;89.94
70468;BME280;57934;51.532;7.684;2023-01-25T01:11:47;102389.44;;;-0.25;89.92
70468;BME280;57934;51.532;7.684;2023-01-25T01:14:13;102383.28;;;-0.22;90.06
70468;BME280;57934;51.532;7.684;2023-01-25T01:16:40;102388.19;;;-0.35;90.13
70468;BME280;57934;51.532;7.684;2023-01-25T01:19:08;102388.41;;;-0.40;90.27
70468;BME280;57934;51.532;7.684;2023-01-25T01:21:34;102384.91;;;-0.39;90.67
70468;BME280;57934;51.532;7.684;2023-01-25T01:24:01;102385.94;;;-0.43;90.64
70468;BME280;57934;51.532;7.684;2023-01-25T01:26:28;102395.56;;;-0.45;90.57
70468;BME280;57934;51.532;7.684;2023-01-25T01:28:54;102397.31;;;-0.45;90.82
70468;BME280;57934;51.532;7.684;2023-01-25T01:31:22;102396.31;;;-0.43;91.02
70468;BME280;57934;51.532;7.684;2023-01-25T01:34:11;102395.63;;;-0.46;91.12
70468;BME280;57934;51.532;7.684;2023-01-25T01:36:38;102394.66;;;-0.44;91.21
70468;BME280;57934;51.532;7.684;2023-01-25T01:39:04;102393.72;;;-0.43;91.34
70468;BME280;57934;51.532;7.684;2023-01-25T01:41:30;102394.25;;;-0.35;90.69
70468;BME280;57934;51.532;7.684;2023-01-25T01:43:58;102396.31;;;-0.43;90.92
70468;BME280;57934;51.532;7.684;2023-01-25T01:46:28;102395.44;;;-0.42;90.69
70468;BME280;57934;51.532;7.684;2023-01-25T01:49:25;102395.34;;;-0.40;91.08
70468;BME280;57934;51.532;7.684;2023-01-25T01:52:11;102397.94;;;-0.40;90.85
70468;BME280;57934;51.532;7.684;2023-01-25T01:54:44;102399.03;;;-0.46;91.14
70468;BME280;57934;51.532;7.684;2023-01-25T01:57:14;102389.69;;;-0.49;90.92
70468;BME280;57934;51.532;7.684;2023-01-25T01:59:48;102391.72;;;-0.55;90.83
70468;BME280;57934;51.532;7.684;2023-01-25T02:02:15;102388.97;;;-0.52;91.60
70468;BME280;57934;51.532;7.684;2023-01-25T02:04:45;102386.78;;;-0.42;91.57
70468;BME280;57934;51.532;7.684;2023-01-25T02:07:17;102390.88;;;-0.37;91.40
70468;BME280;57934;51.532;7.684;2023-01-25T02:09:48;102384.00;;;-0.38;91.10
70468;BME280;57934;51.532;7.684;2023-01-25T02:12:16;102389.19;;;-0.38;91.58
70468;BME280;57934;51.532;7.684;2023-01-25T02:14:47;102380.41;;;-0.35;91.46
70468;BME280;57934;51.532;7.684;2023-01-25T02:17:33;102377.06;;;-0.37;90.98
70468;BME280;57934;51.532;7.684;2023-01-25T02:20:09;102384.19;;;-0.42;91.14
70468;BME280;57934;51.532;7.684;2023-01-25T02:25:13;102385.03;;;-0.61;91.46
70468;BME280;57934;51.532;7.684;2023-01-25T02:27:47;102375.47;;;-0.59;92.22
70468;BME280;57934;51.532;7.684;2023-01-25T02:30:14;102382.19;;;-0.55;92.09
70468;BME280;57934;51.532;7.684;2023-01-25T02:32:40;102386.38;;;-0.52;91.69
70468;BME280;57934;51.532;7.684;2023-01-25T02:35:07;102383.09;;;-0.56;92.38
70468;BME280;57934;51.532;7.684;2023-01-25T02:37:33;102377.25;;;-0.61;92.18
70468;BME280;57934;51.532;7.684;2023-01-25T02:39:59;102384.19;;;-0.61;92.31
70468;BME280;57934;51.532;7.684;2023-01-25T02:42:29;102390.09;;;-0.58;92.20
70468;BME280;57934;51.532;7.684;2023-01-25T02:44:58;102379.03;;;-0.61;92.11
70468;BME280;57934;51.532;7.684;2023-01-25T02:47:24;102380.06;;;-0.65;92.63
70468;BME280;57934;51.532;7.684;2023-01-25T02:49:50;102380.81;;;-0.63;92.87
70468;BME280;57934;51.532;7.684;2023-01-25T02:52:17;102378.88;;;-0.77;93.21
70468;BME280;57934;51.532;7.684;2023-01-25T02:54:43;102381.38;;;-0.76;93.68
70468;BME280;57934;51.532;7.684;2023-01-25T02:57:10;102371.25;;;-0.61;93.06
70468;BME280;57934;51.532;7.684;2023-01-25T02:59:42;102373.06;;;-0.63;92.95
70468;BME280;57934;51.532;7.684;2023-01-25T03:02:08;102374.53;;;-0.77;93.56
70468;BME280;57934;51.532;7.684;2023-01-25T03:04:34;102369.66;;;-0.84;93.45
70468;BME280;57934;51.532;7.684;2023-01-25T03:07:01;102365.34;;;-0.84;94.20
70468;BME280;57934;51.532;7.684;2023-01-25T03:09:27;102372.34;;;-0.86;94.35
70468;BME280;57934;51.532;7.684;2023-01-25T03:11:53;102369.88;;;-0.89;94.27
70468;BME280;57934;51.532;7.684;2023-01-25T03:14:21;102362.06;;;-0.87;95.00
70468;BME280;57934;51.532;7.684;2023-01-25T03:16:48;102364.19;;;-0.77;94.92
70468;BME280;57934;51.532;7.684;2023-01-25T03:19:16;102368.66;;;-0.80;95.13
70468;BME280;57934;51.532;7.684;2023-01-25T03:21:43;102362.22;;;-0.72;94.42
70468;BME280;57934;51.532;7.684;2023-01-25T03:24:09;102355.13;;;-0.68;94.45
70468;BME280;57934;51.532;7.684;2023-01-25T03:26:41;102352.34;;;-0.63;94.00
70468;BME280;57934;51.532;7.684;2023-01-25T03:29:33;102351.22;;;-0.77;94.10
70468;BME280;57934;51.532;7.684;2023-01-25T03:31:59;102348.25;;;-0.88;94.55
70468;BME280;57934;51.532;7.684;2023-01-25T03:34:26;102343.63;;;-0.81;94.60
70468;BME280;57934;51.532;7.684;2023-01-25T03:36:52;102344.34;;;-0.78;94.82
70468;BME280;57934;51.532;7.684;2023-01-25T03:39:18;102334.50;;;-0.69;94.93
70468;BME280;57934;51.532;7.684;2023-01-25T03:41:45;102331.59;;;-0.63;94.57
70468;BME280;57934;51.532;7.684;2023-01-25T03:44:13;102330.16;;;-0.69;95.25
70468;BME280;57934;51.532;7.684;2023-01-25T03:46:41;102330.78;;;-0.64;94.60
70468;BME280;57934;51.532;7.684;2023-01-25T03:49:07;102320.34;;;-0.62;94.78
70468;BME280;57934;51.532;7.684;2023-01-25T03:51:34;102311.53;;;-0.58;94.90
70468;BME280;57934;51.532;7.684;2023-01-25T03:54:01;102303.69;;;-0.57;95.20
70468;BME280;57934;51.532;7.684;2023-01-25T03:56:27;102304.31;;;-0.52;95.15
70468;BME280;57934;51.532;7.684;2023-01-25T03:59:00;102298.50;;;-0.57;94.85
70468;BME280;57934;51.532;7.684;2023-01-25T04:01:26;102297.31;;;-0.68;94.30
70468;BME280;57934;51.532;7.684;2023-01-25T04:03:54;102296.19;;;-0.82;94.44
70468;BME280;57934;51.532;7.684;2023-01-25T04:06:20;102293.00;;;-0.87;94.38
70468;BME280;57934;51.532;7.684;2023-01-25T04:08:47;102288.69;;;-0.88;94.91
70468;BME280;57934;51.532;7.684;2023-01-25T04:11:13;102291.50;;;-0.92;95.23
70468;BME280;57934;51.532;7.684;2023-01-25T04:13:41;102285.63;;;-0.96;96.18
70468;BME280;57934;51.532;7.684;2023-01-25T04:16:10;102288.22;;;-0.96;96.14
70468;BME280;57934;51.532;7.684;2023-01-25T04:19:08;102286.31;;;-0.92;96.47
70468;BME280;57934;51.532;7.684;2023-01-25T04:21:34;102296.19;;;-0.82;96.42
70468;BME280;57934;51.532;7.684;2023-01-25T04:24:00;102282.97;;;-0.76;96.62
70468;BME280;57934;51.532;7.684;2023-01-25T04:26:28;102284.38;;;-0.68;96.58
70468;BME280;57934;51.532;7.684;2023-01-25T04:28:58;102273.88;;;-0.65;96.22
70468;BME280;57934;51.532;7.684;2023-01-25T04:31:24;102274.72;;;-0.65;96.38
70468;BME280;57934;51.532;7.684;2023-01-25T04:33:50;102275.53;;;-0.64;96.38
70468;BME280;57934;51.532;7.684;2023-01-25T04:36:17;102267.78;;;-0.64;96.48
70468;BME280;57934;51.532;7.684;2023-01-25T04:38:44;102258.94;;;-0.60;96.00
70468;BME280;57934;51.532;7.684;2023-01-25T04:41:10;102250.63;;;-0.67;95.88
70468;BME280;57934;51.532;7.684;2023-01-25T04:43:36;102258.19;;;-0.81;95.50
70468;BME280;57934;51.532;7.684;2023-01-25T04:46:08;102256.09;;;-0.92;96.02
70468;BME280;57934;51.532;7.684;2023-01-25T04:48:34;102256.88;;;-0.90;96.64
70468;BME280;57934;51.532;7.684;2023-01-25T04:51:04;102256.09;;;-0.92;96.80
70468;BME280;57934;51.532;7.684;2023-01-25T04:53:31;102250.78;;;-0.89;96.63
70468;BME280;57934;51.532;7.684;2023-01-25T04:56:00;102249.53;;;-0.80;96.60
70468;BME280;57934;51.532;7.684;2023-01-25T04:58:29;102243.75;;;-0.68;96.54
70468;BME280;57934;51.532;7.684;2023-01-25T05:01:01;102247.84;;;-0.62;97.12
70468;BME280;57934;51.532;7.684;2023-01-25T05:03:28;102239.06;;;-0.60;96.30
70468;BME280;57934;51.532;7.684;2023-01-25T05:05:55;102245.09;;;-0.59;96.53
70468;BME280;57934;51.532;7.684;2023-01-25T05:08:23;102249.34;;;-0.58;96.48
70468;BME280;57934;51.532;7.684;2023-01-25T05:10:53;102243.53;;;-0.63;96.33
70468;BME280;57934;51.532;7.684;2023-01-25T05:13:29;102250.34;;;-0.61;96.00
70468;BME280;57934;51.532;7.684;2023-01-25T05:16:07;102252.69;;;-0.74;95.70
70468;BME280;57934;51.532;7.684;2023-01-25T05:18:33;102265.81;;;-0.78;96.20
70468;BME280;57934;51.532;7.684;2023-01-25T05:20:59;102260.59;;;-0.77;96.35
70468;BME280;57934;51.532;7.684;2023-01-25T05:23:27;102251.56;;;-0.87;96.53
70468;BME280;57934;51.532;7.684;2023-01-25T05:25:53;102252.25;;;-0.83;96.16
70468;BME280;57934;51.532;7.684;2023-01-25T05:28:39;102255.69;;;-0.83;96.06
70468;BME280;57934;51.532;7.684;2023-01-25T05:31:19;102254.75;;;-0.82;96.77
70468;BME280;57934;51.532;7.684;2023-01-25T05:33:46;102246.16;;;-0.82;96.63
70468;BME280;57934;51.532;7.684;2023-01-25T05:36:12;102249.66;;;-0.83;96.46
70468;BME280;57934;51.532;7.684;2023-01-25T05:38:41;102246.94;;;-0.80;96.51
70468;BME280;57934;51.532;7.684;2023-01-25T05:41:09;102249.38;;;-0.77;96.96
70468;BME280;57934;51.532;7.684;2023-01-25T05:43:35;102249.38;;;-0.77;96.55
70468;BME280;57934;51.532;7.684;2023-01-25T05:46:04;102249.22;;;-0.74;96.53
70468;BME280;57934;51.532;7.684;2023-01-25T05:48:31;102255.31;;;-0.75;96.87
70468;BME280;57934;51.532;7.684;2023-01-25T05:50:57;102248.69;;;-0.81;96.93
70468;BME280;57934;51.532;7.684;2023-01-25T05:53:27;102260.78;;;-0.81;96.81
70468;BME280;57934;51.532;7.684;2023-01-25T05:55:53;102254.06;;;-0.85;97.01
70468;BME280;57934;51.532;7.684;2023-01-25T05:58:20;102253.38;;;-0.89;97.00
70468;BME280;57934;51.532;7.684;2023-01-25T06:00:46;102255.94;;;-0.89;97.30
70468;BME280;57934;51.532;7.684;2023-01-25T06:03:22;102247.28;;;-0.88;96.92
70468;BME280;57934;51.532;7.684;2023-01-25T06:05:55;102244.75;;;-0.89;96.89
70468;BME280;57934;51.532;7.684;2023-01-25T06:08:22;102249.84;;;-0.88;97.49
70468;BME280;57934;51.532;7.684;2023-01-25T06:10:50;102245.31;;;-0.83;97.34
70468;BME280;57934;51.532;7.684;2023-01-25T06:13:17;102246.09;;;-0.81;97.13
70468;BME280;57934;51.532;7.684;2023-01-25T06:15:54;102235.56;;;-0.78;97.38
70468;BME280;57934;51.532;7.684;2023-01-25T06:18:55;102239.56;;;-0.70;96.57
70468;BME280;57934;51.532;7.684;2023-01-25T06:21:35;102235.88;;;-0.84;96.24
70468;BME280;57934;51.532;7.684;2023-01-25T06:24:04;102239.72;;;-0.92;96.42
70468;BME280;57934;51.532;7.684;2023-01-25T06:26:30;102238.06;;;-0.93;96.77
70468;BME280;57934;51.532;7.684;2023-01-25T06:28:56;102248.63;;;-0.98;97.00
70468;BME280;57934;51.532;7.684;2023-01-25T06:31:23;102241.69;;;-0.98;96.59
70468;BME280;57934;51.532;7.684;2023-01-25T06:33:50;102245.88;;;-0.95;97.08
70468;BME280;57934;51.532;7.684;2023-01-25T06:36:20;102245.69;;;-0.90;96.81
70468;BME280;57934;51.532;7.684;2023-01-25T06:38:48;102243.50;;;-1.00;96.78
70468;BME280;57934;51.532;7.684;2023-01-25T06:41:15;102245.38;;;-1.03;96.79
70468;BME280;57934;51.532;7.684;2023-01-25T06:43:42;102241.56;;;-0.94;97.20
70468;BME280;57934;51.532;7.684;2023-01-25T06:46:09;102247.72;;;-0.97;97.44
70468;BME280;57934;51.532;7.684;2023-01-25T06:48:37;102251.75;;;-0.91;97.02
70468;BME280;57934;51.532;7.684;2023-01-25T06:51:05;102246.38;;;-0.87;97.12
70468;BME280;57934;51.532;7.684;2023-01-25T06:53:34;102247.81;;;-0.81;97.39
70468;BME280;57934;51.532;7.684;2023-01-25T06:56:03;102244.41;;;-0.82;97.24
70468;BME280;57934;51.532;7.684;2023-01-25T06:58:30;102242.78;;;-0.84;97.48
70468;BME280;57934;51.532;7.684;2023-01-25T07:01:11;102245.78;;;-0.75;97.01
70468;BME280;57934;51.532;7.684;2023-01-25T07:03:37;102240.47;;;-0.72;97.21
70468;BME280;57934;51.532;7.684;2023-01-25T07:06:06;102245.88;;;-0.76;96.91
70468;BME280;57934;51.532;7.684;2023-01-25T07:08:33;102244.97;;;-0.75;96.66
70468;BME280;57934;51.532;7.684;2023-01-25T07:11:02;102247.28;;;-0.69;96.76
70468;BME280;57934;51.532;7.684;2023-01-25T07:13:30;102244.13;;;-0.76;96.59
70468;BME280;57934;51.532;7.684;2023-01-25T07:16:03;102247.50;;;-0.74;96.23
70468;BME280;57934;51.532;7.684;2023-01-25T07:18:30;102242.50;;;-0.78;96.67
70468;BME280;57934;51.532;7.684;2023-01-25T07:21:04;102245.03;;;-0.77;96.52
70468;BME280;57934;51.532;7.684;2023-01-25T07:23:31;102239.03;;;-0.77;96.64
70468;BME280;57934;51.532;7.684;2023-01-25T07:25:58;102235.03;;;-0.84;96.41
70468;BME280;57934;51.532;7.684;2023-01-25T07:28:24;102239.03;;;-0.77;96.83
70468;BME280;57934;51.532;7.684;2023-01-25T07:30:50;102238.94;;;-0.76;96.74
70468;BME280;57934;51.532;7.684;2023-01-25T07:33:16;102235.75;;;-0.81;96.67
70468;BME280;57934;51.532;7.684;2023-01-25T07:35:42;102234.00;;;-0.80;96.22
70468;BME280;57934;51.532;7.684;2023-01-25T07:38:08;102233.44;;;-0.87;96.46
70468;BME280;57934;51.532;7.684;2023-01-25T07:40:35;102223.72;;;-1.01;96.60
70468;BME280;57934;51.532;7.684;2023-01-25T07:43:01;102230.50;;;-0.98;96.39
70468;BME280;57934;51.532;7.684;2023-01-25T07:45:29;102233.00;;;-0.97;96.59
70468;BME280;57934;51.532;7.684;2023-01-25T07:47:59;102235.38;;;-0.92;97.23
70468;BME280;57934;51.532;7.684;2023-01-25T07:50:26;102227.56;;;-0.90;97.12
70468;BME280;57934;51.532;7.684;2023-01-25T07:52:53;102217.34;;;-0.93;97.18
70468;BME280;57934;51.532;7.684;2023-01-25T07:55:20;102216.97;;;-0.86;97.50
70468;BME280;57934;51.532;7.684;2023-01-25T07:57:46;102222.06;;;-0.84;97.44
70468;BME280;57934;51.532;7.684;2023-01-25T08:00:13;102222.03;;;-0.83;97.48
70468;BME280;57934;51.532;7.684;2023-01-25T08:02:39;102219.19;;;-0.78;97.41
70468;BME280;57934;51.532;7.684;2023-01-25T08:05:06;102218.09;;;-0.73;97.08
70468;BME280;57934;51.532;7.684;2023-01-25T08:07:32;102218.69;;;-0.67;97.37
70468;BME280;57934;51.532;7.684;2023-01-25T08:09:59;102224.19;;;-0.74;96.79
70468;BME280;57934;51.532;7.684;2023-01-25T08:12:25;102221.66;;;-0.75;96.35
70468;BME280;57934;51.532;7.684;2023-01-25T08:14:52;102226.84;;;-0.75;96.69
70468;BME280;57934;51.532;7.684;2023-01-25T08:17:18;102227.06;;;-0.80;96.90
70468;BME280;57934;51.532;7.684;2023-01-25T08:19:44;102220.25;;;-0.82;96.83
70468;BME280;57934;51.532;7.684;2023-01-25T08:22:10;102213.59;;;-0.88;96.63
70468;BME280;57934;51.532;7.684;2023-01-25T08:24:38;102213.88;;;-0.75;96.65
70468;BME280;57934;51.532;7.684;2023-01-25T08:27:04;102218.84;;;-0.70;96.90
70468;BME280;57934;51.532;7.684;2023-01-25T08:29:30;102211.16;;;-0.72;96.50
70468;BME280;57934;51.532;7.684;2023-01-25T08:31:57;102214.66;;;-0.92;96.39
70468;BME280;57934;51.532;7.684;2023-01-25T08:34:25;102211.13;;;-1.08;96.82
70468;BME280;57934;51.532;7.684;2023-01-25T08:36:51;102204.75;;;-1.01;96.92
70468;BME280;57934;51.532;7.684;2023-01-25T08:39:19;102207.34;;;-1.01;97.57
70468;BME280;57934;51.532;7.684;2023-01-25T08:41:45;102203.69;;;-0.97;98.00
70468;BME280;57934;51.532;7.684;2023-01-25T08:44:11;102197.53;;;-0.94;97.64
70468;BME280;57934;51.532;7.684;2023-01-25T08:46:37;102199.22;;;-0.93;98.08
70468;BME280;57934;51.532;7.684;2023-01-25T08:49:04;102201.53;;;-0.87;97.83
70468;BME280;57934;51.532;7.684;2023-01-25T08:51:32;102199.91;;;-0.90;97.72
70468;BME280;57934;51.532;7.684;2023-01-25T08:54:03;102197.94;;;-0.85;97.94
70468;BME280;57934;51.532;7.684;2023-01-25T08:56:31;102201.22;;;-0.81;97.83
70468;BME280;57934;51.532;7.684;2023-01-25T08:58:57;102207.78;;;-0.74;97.64
70468;BME280;57934;51.532;7.684;2023-01-25T09:01:23;102201.63;;;-0.72;97.23
70468;BME280;57934;51.532;7.684;2023-01-25T09:03:50;102206.81;;;-0.72;97.29
70468;BME280;57934;51.532;7.684;2023-01-25T09:06:17;102192.19;;;-0.73;97.06
70468;BME280;57934;51.532;7.684;2023-01-25T09:08:44;102192.25;;;-0.74;96.77
70468;BME280;57934;51.532;7.684;2023-01-25T09:11:13;102192.03;;;-0.69;96.52
70468;BME280;57934;51.532;7.684;2023-01-25T09:13:40;102189.06;;;-0.79;95.98
70468;BME280;57934;51.532;7.684;2023-01-25T09:16:12;102175.97;;;-0.76;96.25
70468;BME280;57934;51.532;7.684;2023-01-25T09:18:40;102175.63;;;-0.87;95.78
70468;BME280;57934;51.532;7.684;2023-01-25T09:21:12;102169.69;;;-0.89;96.07
70468;BME280;57934;51.532;7.684;2023-01-25T09:23:39;102171.34;;;-0.88;96.16
70468;BME280;57934;51.532;7.684;2023-01-25T09:26:05;102168.47;;;-0.82;96.25
70468;BME280;57934;51.532;7.684;2023-01-25T09:28:32;102163.16;;;-0.79;96.45
70468;BME280;57934;51.532;7.684;2023-01-25T09:31:00;102161.94;;;-0.72;96.54
70468;BME280;57934;51.532;7.684;2023-01-25T09:33:47;102165.34;;;-0.89;96.43
70468;BME280;57934;51.532;7.684;2023-01-25T09:36:15;102164.41;;;-0.88;96.58
70468;BME280;57934;51.532;7.684;2023-01-25T09:38:41;102160.53;;;-0.97;96.62
70468;BME280;57934;51.532;7.684;2023-01-25T09:41:45;102154.91;;;-0.87;97.06
70468;BME280;57934;51.532;7.684;2023-01-25T09:44:52;102148.22;;;-0.74;97.11
70468;BME280;57934;51.532;7.684;2023-01-25T09:47:37;102147.25;;;-0.72;96.84
70468;BME280;57934;51.532;7.684;2023-01-25T09:53:21;102150.22;;;-0.79;96.27
70468;BME280;57934;51.532;7.684;2023-01-25T09:55:58;102143.28;;;-0.79;96.70
70468;BME280;57934;51.532;7.684;2023-01-25T09:58:39;102142.69;;;-0.66;96.57
70468;BME280;57934;51.532;7.684;2023-01-25T10:01:22;102148.19;;;-0.55;95.92
70468;BME280;57934;51.532;7.684;2023-01-25T10:04:01;102154.50;;;-0.61;95.87
70468;BME280;57934;51.532;7.684;2023-01-25T10:06:37;102143.91;;;-0.56;95.52
70468;BME280;57934;51.532;7.684;2023-01-25T10:09:42;102137.28;;;-0.62;95.80
70468;BME280;57934;51.532;7.684;2023-01-25T10:14:40;102134.44;;;-0.57;95.47
70468;BME280;57934;51.532;7.684;2023-01-25T10:19:57;102132.72;;;-0.39;95.31
70468;BME280;57934;51.532;7.684;2023-01-25T10:22:29;102124.72;;;-0.35;94.91
70468;BME280;57934;51.532;7.684;2023-01-25T10:25:22;102131.03;;;-0.40;94.56
70468;BME280;57934;51.532;7.684;2023-01-25T10:27:52;102129.75;;;-0.49;94.84
70468;BME280;57934;51.532;7.684;2023-01-25T10:30:30;102124.94;;;-0.39;95.04
70468;BME280;57934;51.532;7.684;2023-01-25T10:33:00;102123.25;;;-0.40;94.88
70468;BME280;57934;51.532;7.684;2023-01-25T10:35:35;102120.06;;;-0.45;94.93
70468;BME280;57934;51.532;7.684;2023-01-25T10:41:11;102113.19;;;-0.46;94.98
70468;BME280;57934;51.532;7.684;2023-01-25T10:43:39;102105.22;;;-0.42;95.16
70468;BME280;57934;51.532;7.684;2023-01-25T10:46:18;102099.34;;;-0.45;94.91
70468;BME280;57934;51.532;7.684;2023-01-25T10:48:46;102096.66;;;-0.44;95.54
70468;BME280;57934;51.532;7.684;2023-01-25T10:51:32;102100.72;;;-0.38;95.38
70468;BME280;57934;51.532;7.684;2023-01-25T10:54:04;102089.19;;;-0.33;95.37
70468;BME280;57934;51.532;7.684;2023-01-25T10:56:33;102087.97;;;-0.26;95.57
70468;BME280;57934;51.532;7.684;2023-01-25T11:01:38;102077.19;;;-0.18;95.40
70468;BME280;57934;51.532;7.684;2023-01-25T11:06:50;102065.09;;;-0.17;95.02
70468;BME280;57934;51.532;7.684;2023-01-25T11:11:56;102063.66;;;-0.07;94.93
70468;BME280;57934;51.532;7.684;2023-01-25T11:14:28;102064.97;;;0.02;94.70
70468;BME280;57934;51.532;7.684;2023-01-25T11:17:29;102056.81;;;-0.08;94.11
70468;BME280;57934;51.532;7.684;2023-01-25T11:20:16;102048.00;;;-0.21;93.41
70468;BME280;57934;51.532;7.684;2023-01-25T11:22:53;102041.91;;;-0.20;93.53
70468;BME280;57934;51.532;7.684;2023-01-25T11:25:24;102049.59;;;-0.19;93.71
70468;BME280;57934;51.532;7.684;2023-01-25T11:27:50;102046.09;;;-0.18;93.93
70468;BME280;57934;51.532;7.684;2023-01-25T11:30:17;102035.81;;;-0.19;93.90
70468;BME280;57934;51.532;7.684;2023-01-25T11:32:46;102029.84;;;-0.21;93.78
70468;BME280;57934;51.532;7.684;2023-01-25T11:35:20;102024.28;;;-0.14;94.20
70468;BME280;57934;51.532;7.684;2023-01-25T11:40:42;102014.09;;;-0.17;93.70
70468;BME280;57934;51.532;7.684;2023-01-25T11:43:30;102000.97;;;-0.14;94.21
70468;BME280;57934;51.532;7.684;2023-01-25T11:51:45;101983.41;;;-0.09;93.66
70468;BME280;57934;51.532;7.684;2023-01-25T12:05:42;101955.13;;;-0.13;93.58
70468;BME280;57934;51.532;7.684;2023-01-25T12:08:37;101953.88;;;-0.06;93.88
70468;BME280;57934;51.532;7.684;2023-01-25T12:16:54;101924.63;;;0.08;93.07
70468;BME280;57934;51.532;7.684;2023-01-25T12:19:41;101924.13;;;0.01;92.99
70468;BME280;57934;51.532;7.684;2023-01-25T12:22:20;101921.19;;;0.07;92.99
70468;BME280;57934;51.532;7.684;2023-01-25T12:25:18;101913.31;;;0.09;92.34
70468;BME280;57934;51.532;7.684;2023-01-25T12:28:10;101910.16;;;0.04;92.65
70468;BME280;57934;51.532;7.684;2023-01-25T12:35:41;101897.00;;;0.07;92.08
70468;BME280;57934;51.532;7.684;2023-01-25T12:38:23;101889.97;;;0.09;91.76
70468;BME280;57934;51.532;7.684;2023-01-25T12:40:55;101885.06;;;0.04;91.94
70468;BME280;57934;51.532;7.684;2023-01-25T12:43:40;101879.09;;;0.02;91.68
70468;BME280;57934;51.532;7.684;2023-01-25T12:46:29;101869.66;;;0.01;91.38
70468;BME280;57934;51.532;7.684;2023-01-25T12:49:02;101867.22;;;-0.18;91.44
70468;BME280;57934;51.532;7.684;2023-01-25T12:51:36;101849.53;;;-0.26;92.01
70468;BME280;57934;51.532;7.684;2023-01-25T12:54:16;101845.09;;;-0.23;92.43
70468;BME280;57934;51.532;7.684;2023-01-25T12:57:15;101838.16;;;-0.23;92.68
70468;BME280;57934;51.532;7.684;2023-01-25T13:00:06;101826.69;;;-0.19;92.72
70468;BME280;57934;51.532;7.684;2023-01-25T13:02:52;101819.50;;;-0.14;93.17
70468;BME280;57934;51.532;7.684;2023-01-25T13:11:13;101796.59;;;-0.21;92.30
70468;BME280;57934;51.532;7.684;2023-01-25T13:13:52;101792.06;;;-0.18;92.53
70468;BME280;57934;51.532;7.684;2023-01-25T13:16:32;101782.72;;;-0.20;92.98
70468;BME280;57934;51.532;7.684;2023-01-25T13:19:00;101785.88;;;-0.15;92.97
70468;BME280;57934;51.532;7.684;2023-01-25T13:24:22;101773.50;;;-0.10;92.48
70468;BME280;57934;51.532;7.684;2023-01-25T13:34:58;101772.38;;;-0.20;92.36
70468;BME280;57934;51.532;7.684;2023-01-25T13:37:26;101769.66;;;-0.19;92.53
70468;BME280;57934;51.532;7.684;2023-01-25T13:40:31;101770.09;;;-0.27;92.25
70468;BME280;57934;51.532;7.684;2023-01-25T13:43:03;101755.31;;;-0.25;92.71
70468;BME280;57934;51.532;7.684;2023-01-25T13:45:33;101752.34;;;-0.18;92.89
70468;BME280;57934;51.532;7.684;2023-01-25T13:48:13;101759.13;;;-0.16;92.33
70468;BME280;57934;51.532;7.684;2023-01-25T13:50:48;101750.69;;;-0.19;92.35
70468;BME280;57934;51.532;7.684;2023-01-25T13:55:43;101762.72;;;-0.18;92.55
70468;BME280;57934;51.532;7.684;2023-01-25T13:58:24;101767.00;;;-0.17;92.31
70468;BME280;57934;51.532;7.684;2023-01-25T14:01:03;101754.94;;;-0.18;91.63
70468;BME280;57934;51.532;7.684;2023-01-25T14:03:53;101756.66;;;-0.17;91.79
70468;BME280;57934;51.532;7.684;2023-01-25T14:06:26;101748.22;;;-0.21;91.43
70468;BME280;57934;51.532;7.684;2023-01-25T14:08:56;101742.81;;;-0.18;91.58
70468;BME280;57934;51.532;7.684;2023-01-25T14:11:28;101739.41;;;-0.18;92.18
70468;BME280;57934;51.532;7.684;2023-01-25T14:14:15;101734.03;;;-0.15;92.26
70468;BME280;57934;51.532;7.684;2023-01-25T14:16:43;101735.53;;;-0.11;91.85
70468;BME280;57934;51.532;7.684;2023-01-25T14:19:28;101736.16;;;-0.22;91.24
70468;BME280;57934;51.532;7.684;2023-01-25T14:22:21;101739.94;;;-0.28;91.82
70468;BME280;57934;51.532;7.684;2023-01-25T14:25:13;101726.53;;;-0.20;92.40
70468;BME280;57934;51.532;7.684;2023-01-25T14:27:54;101737.75;;;-0.19;91.97
70468;BME280;57934;51.532;7.684;2023-01-25T14:30:26;101727.19;;;-0.16;92.43